Maersk Lirquen — VRKB8 — position and weather

sailwx.info

Track history (hours):
 
Tides and Currents Weather Stations Pressure Air Temp Water Temp Dewpoint Dewpoint Depression Visibility Wind Speed Wind Dir Waves Ship Positions

Maersk Lirquen

Last reported at 2015-Jan-31 09:00 UTC. Time now 2015-Feb-01 16:41 UTC.
Position N 33°48' W 008°36'.

Length 300 m; draft 11.5 m.

Type: Ship (hazmat cat A). MMSI: 477423500.

Wind from 330 at 28 knots

Waves 2.0 meters (7 feet), 4 second period

Barometer 1017.9 mb
Air temperature 16.0 ° C
Visibility: greater than 5.4 NM
Dewpoint 10.3 ° C
Water temperature 21.0 ° C

Date/timePositionNaut miles runAvg speedWind from/ knotsBaromVisibWave heightAir tempDewpointWater temp
2015-Jan-31 09:00N 33°48' W 008°36'20017.5 330 / 281017.9 5.4 2.016.010.321.0
2015-Jan-30 21:33N 35°58' W 005°31'1110.7
2015-Jan-30 20:33N 36°07' W 005°23'3 2.8
2015-Jan-30 19:33N 36°09' W 005°26'0 0.0
2015-Jan-30 18:28N 36°09' W 005°26'0 0.0
2015-Jan-30 17:25N 36°09' W 005°26'0 0.0
2015-Jan-30 16:31N 36°09' W 005°26'0 0.0
2015-Jan-30 15:31N 36°09' W 005°26'0 0.0
2015-Jan-30 14:31N 36°09' W 005°26'0 0.0
2015-Jan-30 13:31N 36°09' W 005°26'0 0.0
2015-Jan-30 12:28N 36°09' W 005°26'0 0.0
2015-Jan-30 11:31N 36°09' W 005°26'0 0.0
2015-Jan-30 10:31N 36°09' W 005°26'0 0.0
2015-Jan-30 09:22N 36°09' W 005°26'0 0.0
2015-Jan-30 08:31N 36°09' W 005°26'0 0.0
2015-Jan-30 07:31N 36°09' W 005°26'0 0.0
2015-Jan-30 06:31N 36°09' W 005°26'0 0.0
2015-Jan-30 05:31N 36°09' W 005°26'0 0.0
2015-Jan-30 04:31N 36°09' W 005°26'0 0.0
2015-Jan-30 03:28N 36°09' W 005°26'0 0.0
2015-Jan-30 02:28N 36°09' W 005°26'0 0.0
2015-Jan-30 01:28N 36°09' W 005°26'0 0.0
2015-Jan-30 00:19N 36°09' W 005°26'0 0.0
2015-Jan-29 23:28N 36°09' W 005°26'0 0.0
2015-Jan-29 22:31N 36°09' W 005°26'0 0.0
2015-Jan-29 21:28N 36°09' W 005°26'0 0.0
2015-Jan-29 20:10N 36°09' W 005°26'0 0.0
2015-Jan-29 19:31N 36°09' W 005°26'0 0.0
2015-Jan-29 18:28N 36°09' W 005°26'0 0.1
2015-Jan-29 17:22N 36°09' W 005°26'0 0.0
2015-Jan-29 16:22N 36°09' W 005°26'0 0.0
2015-Jan-29 15:31N 36°09' W 005°26'0 0.0
2015-Jan-29 14:31N 36°09' W 005°26'0 0.0
2015-Jan-29 13:33N 36°09' W 005°26'6 5.8
2015-Jan-29 12:33N 36°05' W 005°21'4 4.3
2015-Jan-29 11:33N 36°04' W 005°16'8 7.5
2015-Jan-29 10:33N 35°59' W 005°23'17310.1
2015-Jan-28 17:24N 36°28' W 008°54'3410.3
2015-Jan-28 14:07N 36°45' W 009°31'1811.2
2015-Jan-28 12:31N 37°02' W 009°38'1311.4
2015-Jan-28 11:23N 37°15' W 009°41'2211.5
2015-Jan-28 09:29N 37°36' W 009°47'1111.7
2015-Jan-28 08:33N 37°46' W 009°51'1211.6
2015-Jan-28 07:33N 37°58' W 009°54'1411.4
2015-Jan-28 06:20N 38°11' W 009°58'1011.7
2015-Jan-28 05:30N 38°21' W 010°01'1212.2
2015-Jan-28 04:32N 38°32' W 010°04'1212.0
2015-Jan-28 03:33N 38°44' W 010°06'1212.0
2015-Jan-28 02:33N 38°56' W 010°05'1211.7
2015-Jan-28 01:33N 39°08' W 010°06'1211.6
2015-Jan-28 00:33N 39°19' W 010°06'18511.9
2015-Jan-27 09:00N 42°24' W 010°06'30212.6 020 / 181034.9 5.4 1.012.010.116.0
2015-Jan-26 09:00N 47°00' W 007°12'24812.8 250 / 241033.0 5.4 1.510.0 7.912.0
2015-Jan-25 13:33N 50°01' W 002°55'1010.0
2015-Jan-25 12:33N 50°04' W 002°40'26 8.6
2015-Jan-25 09:31N 50°09' W 002°01'916.6
2015-Jan-25 09:00N 50°06' W 001°48'2912.0 300 / 171033.0 5.4 1.010.0 0.114.0
2015-Jan-25 06:33N 50°18' W 001°07'1514.8
2015-Jan-25 05:33N 50°22' W 000°44'1414.3
2015-Jan-25 04:33N 50°26' W 000°23'1313.3
2015-Jan-25 03:33N 50°30' W 000°03'1212.4
2015-Jan-25 02:33N 50°33' E 000°16'1111.3
2015-Jan-25 01:33N 50°36' E 000°33'1110.9
2015-Jan-25 00:33N 50°42' E 000°48'1211.5
2015-Jan-24 23:33N 50°48' E 001°03'1413.7
2015-Jan-24 22:32N 50°57' E 001°21'1515.6
2015-Jan-24 21:33N 51°08' E 001°37'1414.2
2015-Jan-24 20:34N 51°18' E 001°52'10 9.9
2015-Jan-24 19:33N 51°23' E 002°06'1110.5
2015-Jan-24 18:33N 51°21' E 002°22'1110.7
2015-Jan-24 17:33N 51°23' E 002°39'1312.6
2015-Jan-24 16:34N 51°25' E 002°59'1615.9
2015-Jan-24 15:33N 51°25' E 003°25'10 9.9
2015-Jan-24 14:34N 51°26' E 003°40'10 9.9
2015-Jan-24 13:33N 51°22' E 003°54'6 6.5
2015-Jan-24 12:34N 51°22' E 004°05'8 8.0
2015-Jan-24 11:34N 51°19' E 004°16'1 1.3
2015-Jan-24 10:32N 51°18' E 004°16'0 0.0
2015-Jan-24 09:32N 51°18' E 004°16'0 0.0
2015-Jan-24 08:32N 51°18' E 004°16'0 0.0
2015-Jan-24 07:32N 51°18' E 004°16'0 0.0
2015-Jan-24 06:32N 51°18' E 004°16'0 0.0
2015-Jan-24 05:32N 51°18' E 004°16'0 0.0
2015-Jan-24 04:26N 51°18' E 004°16'0 0.0
2015-Jan-24 03:32N 51°18' E 004°16'0 0.0
2015-Jan-24 02:32N 51°18' E 004°16'0 0.0
2015-Jan-24 01:32N 51°18' E 004°16'0 0.0
2015-Jan-24 00:32N 51°18' E 004°16'0 0.0
2015-Jan-23 23:32N 51°18' E 004°16'0 0.0
2015-Jan-23 22:32N 51°18' E 004°16'0 0.0
2015-Jan-23 21:29N 51°18' E 004°16'0 0.0
2015-Jan-23 20:32N 51°18' E 004°16'0 0.0
2015-Jan-23 19:26N 51°18' E 004°16'0 0.0
2015-Jan-23 18:32N 51°18' E 004°16'0 0.0
2015-Jan-23 17:32N 51°18' E 004°16'0 0.0
2015-Jan-23 16:32N 51°18' E 004°16'0 0.0
2015-Jan-23 15:32N 51°18' E 004°16'0 0.0
2015-Jan-23 14:32N 51°18' E 004°16'0 0.0
2015-Jan-23 13:32N 51°18' E 004°16'0 0.0
2015-Jan-23 12:32N 51°18' E 004°16'0 0.0
2015-Jan-23 11:32N 51°18' E 004°16'0 0.0
2015-Jan-23 10:32N 51°18' E 004°16'0 0.0
2015-Jan-23 09:32N 51°18' E 004°16'0 0.0
2015-Jan-23 08:32N 51°18' E 004°16'0 0.0
2015-Jan-23 07:32N 51°18' E 004°16'0 0.0
2015-Jan-23 06:32N 51°18' E 004°16'0 0.0
2015-Jan-23 05:33N 51°18' E 004°16'0 0.0
2015-Jan-23 04:32N 51°18' E 004°16'1 0.6
2015-Jan-23 03:33N 51°18' E 004°16'6 6.5
2015-Jan-23 02:33N 51°23' E 004°10'8 8.4
2015-Jan-23 01:33N 51°23' E 003°57'1110.7
2015-Jan-23 00:34N 51°26' E 003°40'7 6.5
2015-Jan-22 23:30N 51°26' E 003°29'0 0.3
2015-Jan-22 22:33N 51°26' E 003°29'0 0.0
2015-Jan-22 21:33N 51°26' E 003°29'0 0.0
2015-Jan-22 20:33N 51°26' E 003°29'0 0.0
2015-Jan-22 19:33N 51°26' E 003°29'0 0.0
2015-Jan-22 18:33N 51°26' E 003°29'0 0.0
2015-Jan-22 17:33N 51°26' E 003°29'0 0.0
2015-Jan-22 16:30N 51°26' E 003°29'0 0.1
2015-Jan-22 15:30N 51°26' E 003°29'0 0.3
2015-Jan-22 14:33N 51°26' E 003°29'0 0.1
2015-Jan-22 13:30N 51°26' E 003°29'0 0.0
2015-Jan-22 12:33N 51°26' E 003°29'0 0.0
2015-Jan-22 11:33N 51°26' E 003°29'0 0.3
2015-Jan-22 10:33N 51°26' E 003°29'0 0.1
2015-Jan-22 09:33N 51°26' E 003°29'1 1.5
2015-Jan-22 08:33N 51°25' E 003°27'1111.1
2015-Jan-22 07:33N 51°24' E 003°09'9 8.7
2015-Jan-22 06:33N 51°32' E 003°06'1411.8
2015-Jan-22 05:25N 51°45' E 003°13'7 8.3
2015-Jan-22 04:33N 51°52' E 003°17'9 8.8
2015-Jan-22 03:33N 52°01' E 003°20'9 8.6
2015-Jan-22 02:33N 52°09' E 003°22'9 8.9
2015-Jan-22 01:29N 52°18' E 003°25'910.0
2015-Jan-22 00:33N 52°27' E 003°28'1110.5
2015-Jan-21 23:33N 52°38' E 003°31'811.2
2015-Jan-21 22:50N 52°44' E 003°39'111.4
2015-Jan-21 22:46N 52°45' E 003°40'311.4
2015-Jan-21 22:32N 52°47' E 003°42'1111.3
2015-Jan-21 21:31N 52°55' E 003°55'1111.0
2015-Jan-21 20:33N 53°02' E 004°08'1010.2
2015-Jan-21 19:33N 53°09' E 004°21'9 9.3
2015-Jan-21 18:32N 53°17' E 004°29'9 8.9
2015-Jan-21 17:33N 53°25' E 004°35'8 8.0
2015-Jan-21 16:33N 53°31' E 004°45'1010.1
2015-Jan-21 15:33N 53°34' E 005°01'1111.4
2015-Jan-21 14:33N 53°38' E 005°19'1211.6
2015-Jan-21 13:33N 53°42' E 005°37'1111.3
2015-Jan-21 12:33N 53°45' E 005°55'1110.4
2015-Jan-21 11:33N 53°48' E 006°12'9 9.0
2015-Jan-21 10:33N 53°51' E 006°27'9 8.8
2015-Jan-21 09:30N 53°53' E 006°42'  
Track history (hours):
 
Tides and Currents Weather Stations Pressure Air Temp Water Temp Dewpoint Dewpoint Depression Visibility Wind Speed Wind Dir Waves Ship Positions

Maersk Lirquen

Last reported at 2015-Jan-31 09:00 UTC. Time now 2015-Feb-01 16:41 UTC.
Position N 33°48' W 008°36'.

Length 300 m; draft 11.5 m.

Type: Ship (hazmat cat A). MMSI: 477423500.

Wind from 330 at 28 knots

Waves 2.0 meters (7 feet), 4 second period

Barometer 1017.9 mb
Air temperature 16.0 ° C
Visibility: greater than 5.4 NM
Dewpoint 10.3 ° C
Water temperature 21.0 ° C

Date/timePositionNaut miles runAvg speedWind from/ knotsBaromVisibWave heightAir tempDewpointWater temp
2015-Jan-31 09:00N 33°48' W 008°36'20017.5 330 / 281017.9 5.4 2.016.010.321.0
2015-Jan-30 21:33N 35°58' W 005°31'1110.7
2015-Jan-30 20:33N 36°07' W 005°23'3 2.8
2015-Jan-30 19:33N 36°09' W 005°26'0 0.0
2015-Jan-30 18:28N 36°09' W 005°26'0 0.0
2015-Jan-30 17:25N 36°09' W 005°26'0 0.0
2015-Jan-30 16:31N 36°09' W 005°26'0 0.0
2015-Jan-30 15:31N 36°09' W 005°26'0 0.0
2015-Jan-30 14:31N 36°09' W 005°26'0 0.0
2015-Jan-30 13:31N 36°09' W 005°26'0 0.0
2015-Jan-30 12:28N 36°09' W 005°26'0 0.0
2015-Jan-30 11:31N 36°09' W 005°26'0 0.0
2015-Jan-30 10:31N 36°09' W 005°26'0 0.0
2015-Jan-30 09:22N 36°09' W 005°26'0 0.0
2015-Jan-30 08:31N 36°09' W 005°26'0 0.0
2015-Jan-30 07:31N 36°09' W 005°26'0 0.0
2015-Jan-30 06:31N 36°09' W 005°26'0 0.0
2015-Jan-30 05:31N 36°09' W 005°26'0 0.0
2015-Jan-30 04:31N 36°09' W 005°26'0 0.0
2015-Jan-30 03:28N 36°09' W 005°26'0 0.0
2015-Jan-30 02:28N 36°09' W 005°26'0 0.0
2015-Jan-30 01:28N 36°09' W 005°26'0 0.0
2015-Jan-30 00:19N 36°09' W 005°26'0 0.0
2015-Jan-29 23:28N 36°09' W 005°26'0 0.0
2015-Jan-29 22:31N 36°09' W 005°26'0 0.0
2015-Jan-29 21:28N 36°09' W 005°26'0 0.0
2015-Jan-29 20:10N 36°09' W 005°26'0 0.0
2015-Jan-29 19:31N 36°09' W 005°26'0 0.0
2015-Jan-29 18:28N 36°09' W 005°26'0 0.1
2015-Jan-29 17:22N 36°09' W 005°26'0 0.0
2015-Jan-29 16:22N 36°09' W 005°26'0 0.0
2015-Jan-29 15:31N 36°09' W 005°26'0 0.0
2015-Jan-29 14:31N 36°09' W 005°26'0 0.0
2015-Jan-29 13:33N 36°09' W 005°26'6 5.8
2015-Jan-29 12:33N 36°05' W 005°21'4 4.3
2015-Jan-29 11:33N 36°04' W 005°16'8 7.5
2015-Jan-29 10:33N 35°59' W 005°23'17310.1
2015-Jan-28 17:24N 36°28' W 008°54'3410.3
2015-Jan-28 14:07N 36°45' W 009°31'1811.2
2015-Jan-28 12:31N 37°02' W 009°38'1311.4
2015-Jan-28 11:23N 37°15' W 009°41'2211.5
2015-Jan-28 09:29N 37°36' W 009°47'1111.7
2015-Jan-28 08:33N 37°46' W 009°51'1211.6
2015-Jan-28 07:33N 37°58' W 009°54'1411.4
2015-Jan-28 06:20N 38°11' W 009°58'1011.7
2015-Jan-28 05:30N 38°21' W 010°01'1212.2
2015-Jan-28 04:32N 38°32' W 010°04'1212.0
2015-Jan-28 03:33N 38°44' W 010°06'1212.0
2015-Jan-28 02:33N 38°56' W 010°05'1211.7
2015-Jan-28 01:33N 39°08' W 010°06'1211.6
2015-Jan-28 00:33N 39°19' W 010°06'18511.9
2015-Jan-27 09:00N 42°24' W 010°06'30212.6 020 / 181034.9 5.4 1.012.010.116.0
2015-Jan-26 09:00N 47°00' W 007°12'24812.8 250 / 241033.0 5.4 1.510.0 7.912.0
2015-Jan-25 13:33N 50°01' W 002°55'1010.0
2015-Jan-25 12:33N 50°04' W 002°40'26 8.6
2015-Jan-25 09:31N 50°09' W 002°01'916.6
2015-Jan-25 09:00N 50°06' W 001°48'2912.0 300 / 171033.0 5.4 1.010.0 0.114.0
2015-Jan-25 06:33N 50°18' W 001°07'1514.8
2015-Jan-25 05:33N 50°22' W 000°44'1414.3
2015-Jan-25 04:33N 50°26' W 000°23'1313.3
2015-Jan-25 03:33N 50°30' W 000°03'1212.4
2015-Jan-25 02:33N 50°33' E 000°16'1111.3
2015-Jan-25 01:33N 50°36' E 000°33'1110.9
2015-Jan-25 00:33N 50°42' E 000°48'1211.5
2015-Jan-24 23:33N 50°48' E 001°03'1413.7
2015-Jan-24 22:32N 50°57' E 001°21'1515.6
2015-Jan-24 21:33N 51°08' E 001°37'1414.2
2015-Jan-24 20:34N 51°18' E 001°52'10 9.9
2015-Jan-24 19:33N 51°23' E 002°06'1110.5
2015-Jan-24 18:33N 51°21' E 002°22'1110.7
2015-Jan-24 17:33N 51°23' E 002°39'1312.6
2015-Jan-24 16:34N 51°25' E 002°59'1615.9
2015-Jan-24 15:33N 51°25' E 003°25'10 9.9
2015-Jan-24 14:34N 51°26' E 003°40'10 9.9
2015-Jan-24 13:33N 51°22' E 003°54'6 6.5
2015-Jan-24 12:34N 51°22' E 004°05'8 8.0
2015-Jan-24 11:34N 51°19' E 004°16'1 1.3
2015-Jan-24 10:32N 51°18' E 004°16'0 0.0
2015-Jan-24 09:32N 51°18' E 004°16'0 0.0
2015-Jan-24 08:32N 51°18' E 004°16'0 0.0
2015-Jan-24 07:32N 51°18' E 004°16'0 0.0
2015-Jan-24 06:32N 51°18' E 004°16'0 0.0
2015-Jan-24 05:32N 51°18' E 004°16'0 0.0
2015-Jan-24 04:26N 51°18' E 004°16'0 0.0
2015-Jan-24 03:32N 51°18' E 004°16'0 0.0
2015-Jan-24 02:32N 51°18' E 004°16'0 0.0
2015-Jan-24 01:32N 51°18' E 004°16'0 0.0
2015-Jan-24 00:32N 51°18' E 004°16'0 0.0
2015-Jan-23 23:32N 51°18' E 004°16'0 0.0
2015-Jan-23 22:32N 51°18' E 004°16'0 0.0
2015-Jan-23 21:29N 51°18' E 004°16'0 0.0
2015-Jan-23 20:32N 51°18' E 004°16'0 0.0
2015-Jan-23 19:26N 51°18' E 004°16'0 0.0
2015-Jan-23 18:32N 51°18' E 004°16'0 0.0
2015-Jan-23 17:32N 51°18' E 004°16'0 0.0
2015-Jan-23 16:32N 51°18' E 004°16'0 0.0
2015-Jan-23 15:32N 51°18' E 004°16'0 0.0
2015-Jan-23 14:32N 51°18' E 004°16'0 0.0
2015-Jan-23 13:32N 51°18' E 004°16'0 0.0
2015-Jan-23 12:32N 51°18' E 004°16'0 0.0
2015-Jan-23 11:32N 51°18' E 004°16'0 0.0
2015-Jan-23 10:32N 51°18' E 004°16'0 0.0
2015-Jan-23 09:32N 51°18' E 004°16'0 0.0
2015-Jan-23 08:32N 51°18' E 004°16'0 0.0
2015-Jan-23 07:32N 51°18' E 004°16'0 0.0
2015-Jan-23 06:32N 51°18' E 004°16'0 0.0
2015-Jan-23 05:33N 51°18' E 004°16'0 0.0
2015-Jan-23 04:32N 51°18' E 004°16'1 0.6
2015-Jan-23 03:33N 51°18' E 004°16'6 6.5
2015-Jan-23 02:33N 51°23' E 004°10'8 8.4
2015-Jan-23 01:33N 51°23' E 003°57'1110.7
2015-Jan-23 00:34N 51°26' E 003°40'7 6.5
2015-Jan-22 23:30N 51°26' E 003°29'0 0.3
2015-Jan-22 22:33N 51°26' E 003°29'0 0.0
2015-Jan-22 21:33N 51°26' E 003°29'0 0.0
2015-Jan-22 20:33N 51°26' E 003°29'0 0.0
2015-Jan-22 19:33N 51°26' E 003°29'0 0.0
2015-Jan-22 18:33N 51°26' E 003°29'0 0.0
2015-Jan-22 17:33N 51°26' E 003°29'0 0.0
2015-Jan-22 16:30N 51°26' E 003°29'0 0.1
2015-Jan-22 15:30N 51°26' E 003°29'0 0.3
2015-Jan-22 14:33N 51°26' E 003°29'0 0.1
2015-Jan-22 13:30N 51°26' E 003°29'0 0.0
2015-Jan-22 12:33N 51°26' E 003°29'0 0.0
2015-Jan-22 11:33N 51°26' E 003°29'0 0.3
2015-Jan-22 10:33N 51°26' E 003°29'0 0.1
2015-Jan-22 09:33N 51°26' E 003°29'1 1.5
2015-Jan-22 08:33N 51°25' E 003°27'1111.1
2015-Jan-22 07:33N 51°24' E 003°09'9 8.7
2015-Jan-22 06:33N 51°32' E 003°06'1411.8
2015-Jan-22 05:25N 51°45' E 003°13'7 8.3
2015-Jan-22 04:33N 51°52' E 003°17'9 8.8
2015-Jan-22 03:33N 52°01' E 003°20'9 8.6
2015-Jan-22 02:33N 52°09' E 003°22'9 8.9
2015-Jan-22 01:29N 52°18' E 003°25'910.0
2015-Jan-22 00:33N 52°27' E 003°28'1110.5
2015-Jan-21 23:33N 52°38' E 003°31'811.2
2015-Jan-21 22:50N 52°44' E 003°39'111.4
2015-Jan-21 22:46N 52°45' E 003°40'311.4
2015-Jan-21 22:32N 52°47' E 003°42'1111.3
2015-Jan-21 21:31N 52°55' E 003°55'1111.0
2015-Jan-21 20:33N 53°02' E 004°08'1010.2
2015-Jan-21 19:33N 53°09' E 004°21'9 9.3
2015-Jan-21 18:32N 53°17' E 004°29'9 8.9
2015-Jan-21 17:33N 53°25' E 004°35'8 8.0
2015-Jan-21 16:33N 53°31' E 004°45'1010.1
2015-Jan-21 15:33N 53°34' E 005°01'1111.4
2015-Jan-21 14:33N 53°38' E 005°19'1211.6
2015-Jan-21 13:33N 53°42' E 005°37'1111.3
2015-Jan-21 12:33N 53°45' E 005°55'1110.4
2015-Jan-21 11:33N 53°48' E 006°12'9 9.0
2015-Jan-21 10:33N 53°51' E 006°27'9 8.8
2015-Jan-21 09:30N 53°53' E 006°42'  

Dump ship's entire track history